This is the latest recevied weather packets stored in our database for station/object K5OLV. If no packets are shown the sender has not sent any weather packets the latest 10 day(s).
| Time | Temp. | Humidity | Pressure | Rain* | Wind** | Luminosity | Snow |
|---|---|---|---|---|---|---|---|
| 1777840965 | 18.89° C | 51% | 1015.8 hPa | 0 mm | - | 540 W/m² | - |
| 1777840663 | 17.78° C | 48% | 1015.9 hPa | 0 mm | - | 559 W/m² | - |
| 1777840360 | 18.33° C | 48% | 1015.9 hPa | 0 mm | - | 577 W/m² | - |
| 1777840057 | 17.78° C | 46% | 1016 hPa | 0 mm | - | 580 W/m² | - |
| 1777839755 | 17.78° C | 49% | 1016.2 hPa | 0 mm | - | 584 W/m² | - |
| 1777839452 | 17.78° C | 46% | 1016.2 hPa | 0 mm | - | 592 W/m² | - |
| 1777839150 | 17.78° C | 47% | 1016.2 hPa | 0 mm | - | 597 W/m² | - |
| 1777838846 | 18.89° C | 48% | 1016.3 hPa | 0 mm | - | 618 W/m² | - |
| 1777838542 | 18.33° C | 44% | 1016.4 hPa | 0 mm | - | 610 W/m² | - |
| 1777838239 | 18.33° C | 47% | 1016.5 hPa | 0 mm | - | 588 W/m² | - |
| 1777837936 | 17.78° C | 45% | 1016.7 hPa | 0 mm | - | 642 W/m² | - |
| 1777837634 | 17.78° C | 43% | 1016.5 hPa | 0 mm | - | 634 W/m² | - |
| 1777837329 | 17.22° C | 44% | 1016.5 hPa | 0 mm | - | 572 W/m² | - |
| 1777837026 | 16.67° C | 43% | 1016.9 hPa | 0 mm | - | 629 W/m² | - |
| 1777836722 | 17.22° C | 47% | 1016.8 hPa | 0 mm | - | 673 W/m² | - |
| 1777836417 | 17.22° C | 45% | 1016.9 hPa | 0 mm | - | 653 W/m² | - |
| 1777836113 | 16.67° C | 45% | 1017 hPa | 0 mm | - | 656 W/m² | - |
| 1777835810 | 17.22° C | 46% | 1017 hPa | 0 mm | - | 693 W/m² | - |
| 1777835507 | 16.67° C | 43% | 1017.1 hPa | 0 mm | - | 687 W/m² | - |
| 1777835204 | 17.22° C | 46% | 1017.3 hPa | 0 mm | - | 692 W/m² | - |
| 1777834901 | 17.78° C | 50% | 1017.1 hPa | 0 mm | - | 656 W/m² | - |
| 1777834597 | 16.67° C | 48% | 1017.3 hPa | 0 mm | - | 711 W/m² | - |
| 1777834292 | 16.67° C | 48% | 1017.3 hPa | 0 mm | - | 716 W/m² | - |
| 1777833988 | 16.67° C | 52% | 1017.3 hPa | 0 mm | - | 718 W/m² | - |
| 1777833685 | 16.11° C | 48% | 1017.4 hPa | 0 mm | - | 701 W/m² | - |
* Rain latest hour (hover to see other rain measurements)
** Current wind speed in m/s (hover to see current wind gust speed)